sensor_id;sensor_type;location;lat;lon;timestamp;P1;durP1;ratioP1;P2;durP2;ratioP2
75892;SDS011;64572;50.950;3.676;2023-02-12T00:01:21;34.60;;;21.17;;
75892;SDS011;64572;50.950;3.676;2023-02-12T00:03:48;34.03;;;19.98;;
75892;SDS011;64572;50.950;3.676;2023-02-12T00:06:14;37.80;;;21.17;;
75892;SDS011;64572;50.950;3.676;2023-02-12T00:08:40;32.63;;;20.02;;
75892;SDS011;64572;50.950;3.676;2023-02-12T00:11:06;34.42;;;20.80;;
75892;SDS011;64572;50.950;3.676;2023-02-12T00:13:38;35.25;;;21.08;;
75892;SDS011;64572;50.950;3.676;2023-02-12T00:16:04;38.70;;;21.88;;
75892;SDS011;64572;50.950;3.676;2023-02-12T00:18:31;34.78;;;21.23;;
75892;SDS011;64572;50.950;3.676;2023-02-12T00:20:58;36.08;;;20.88;;
75892;SDS011;64572;50.950;3.676;2023-02-12T00:23:24;34.83;;;21.45;;
75892;SDS011;64572;50.950;3.676;2023-02-12T00:25:50;34.50;;;21.48;;
75892;SDS011;64572;50.950;3.676;2023-02-12T00:28:16;34.22;;;20.85;;
75892;SDS011;64572;50.950;3.676;2023-02-12T00:30:42;38.53;;;21.73;;
75892;SDS011;64572;50.950;3.676;2023-02-12T00:33:07;36.72;;;21.42;;
75892;SDS011;64572;50.950;3.676;2023-02-12T00:35:33;36.55;;;21.52;;
75892;SDS011;64572;50.950;3.676;2023-02-12T00:37:59;32.70;;;20.73;;
75892;SDS011;64572;50.950;3.676;2023-02-12T00:40:24;35.72;;;21.08;;
75892;SDS011;64572;50.950;3.676;2023-02-12T00:42:50;36.22;;;21.85;;
75892;SDS011;64572;50.950;3.676;2023-02-12T00:45:15;36.45;;;21.17;;
75892;SDS011;64572;50.950;3.676;2023-02-12T00:47:41;36.00;;;21.02;;
75892;SDS011;64572;50.950;3.676;2023-02-12T00:50:07;34.35;;;20.65;;
75892;SDS011;64572;50.950;3.676;2023-02-12T00:52:33;31.77;;;19.65;;
75892;SDS011;64572;50.950;3.676;2023-02-12T00:54:59;29.98;;;19.10;;
75892;SDS011;64572;50.950;3.676;2023-02-12T00:57:24;29.58;;;19.08;;
75892;SDS011;64572;50.950;3.676;2023-02-12T00:59:50;33.00;;;20.40;;
75892;SDS011;64572;50.950;3.676;2023-02-12T01:02:16;33.28;;;19.98;;
75892;SDS011;64572;50.950;3.676;2023-02-12T01:04:42;34.50;;;21.05;;
75892;SDS011;64572;50.950;3.676;2023-02-12T01:07:08;35.70;;;21.25;;
75892;SDS011;64572;50.950;3.676;2023-02-12T01:09:34;36.75;;;21.58;;
75892;SDS011;64572;50.950;3.676;2023-02-12T01:12:00;34.88;;;21.15;;
75892;SDS011;64572;50.950;3.676;2023-02-12T01:14:26;31.67;;;19.48;;
75892;SDS011;64572;50.950;3.676;2023-02-12T01:16:51;33.13;;;20.30;;
75892;SDS011;64572;50.950;3.676;2023-02-12T01:19:17;33.72;;;20.58;;
75892;SDS011;64572;50.950;3.676;2023-02-12T01:21:43;35.15;;;19.70;;
75892;SDS011;64572;50.950;3.676;2023-02-12T01:24:08;35.97;;;21.23;;
75892;SDS011;64572;50.950;3.676;2023-02-12T01:26:34;33.50;;;20.05;;
75892;SDS011;64572;50.950;3.676;2023-02-12T01:29:01;32.92;;;19.90;;
75892;SDS011;64572;50.950;3.676;2023-02-12T01:31:30;31.63;;;19.85;;
75892;SDS011;64572;50.950;3.676;2023-02-12T01:34:06;31.98;;;19.38;;
75892;SDS011;64572;50.950;3.676;2023-02-12T01:36:32;31.05;;;20.42;;
75892;SDS011;64572;50.950;3.676;2023-02-12T01:38:58;32.38;;;20.25;;
75892;SDS011;64572;50.950;3.676;2023-02-12T01:41:28;33.50;;;20.85;;
75892;SDS011;64572;50.950;3.676;2023-02-12T01:46:39;32.30;;;20.13;;
75892;SDS011;64572;50.950;3.676;2023-02-12T01:49:06;35.40;;;20.27;;
75892;SDS011;64572;50.950;3.676;2023-02-12T01:51:35;35.25;;;20.60;;
75892;SDS011;64572;50.950;3.676;2023-02-12T01:54:02;34.25;;;20.75;;
75892;SDS011;64572;50.950;3.676;2023-02-12T01:56:30;34.45;;;21.88;;
75892;SDS011;64572;50.950;3.676;2023-02-12T01:58:57;33.15;;;20.98;;
75892;SDS011;64572;50.950;3.676;2023-02-12T02:01:26;33.10;;;19.88;;
75892;SDS011;64572;50.950;3.676;2023-02-12T02:03:56;36.40;;;21.90;;
75892;SDS011;64572;50.950;3.676;2023-02-12T02:06:33;37.95;;;21.42;;
75892;SDS011;64572;50.950;3.676;2023-02-12T02:09:03;39.40;;;22.47;;
75892;SDS011;64572;50.950;3.676;2023-02-12T02:11:29;38.55;;;22.48;;
75892;SDS011;64572;50.950;3.676;2023-02-12T02:14:14;39.03;;;22.70;;
75892;SDS011;64572;50.950;3.676;2023-02-12T02:19:46;34.17;;;22.23;;
75892;SDS011;64572;50.950;3.676;2023-02-12T02:41:29;34.30;;;22.95;;
75892;SDS011;64572;50.950;3.676;2023-02-12T02:44:16;36.53;;;22.92;;
75892;SDS011;64572;50.950;3.676;2023-02-12T02:46:49;35.20;;;22.33;;
75892;SDS011;64572;50.950;3.676;2023-02-12T02:51:50;36.67;;;22.98;;
75892;SDS011;64572;50.950;3.676;2023-02-12T02:54:22;35.40;;;21.77;;
75892;SDS011;64572;50.950;3.676;2023-02-12T02:57:34;32.05;;;21.15;;
75892;SDS011;64572;50.950;3.676;2023-02-12T03:00:39;37.05;;;22.50;;
75892;SDS011;64572;50.950;3.676;2023-02-12T03:03:29;38.78;;;22.95;;
75892;SDS011;64572;50.950;3.676;2023-02-12T03:06:01;37.45;;;23.52;;
75892;SDS011;64572;50.950;3.676;2023-02-12T03:08:41;39.90;;;23.70;;
75892;SDS011;64572;50.950;3.676;2023-02-12T03:11:14;38.50;;;23.45;;
75892;SDS011;64572;50.950;3.676;2023-02-12T03:14:10;34.20;;;23.20;;
75892;SDS011;64572;50.950;3.676;2023-02-12T03:16:54;37.40;;;23.05;;
75892;SDS011;64572;50.950;3.676;2023-02-12T03:19:44;34.35;;;21.75;;
75892;SDS011;64572;50.950;3.676;2023-02-12T03:22:15;35.17;;;22.38;;
75892;SDS011;64572;50.950;3.676;2023-02-12T03:24:45;38.05;;;24.02;;
75892;SDS011;64572;50.950;3.676;2023-02-12T03:27:22;34.50;;;22.70;;
75892;SDS011;64572;50.950;3.676;2023-02-12T03:37:57;36.30;;;23.38;;
75892;SDS011;64572;50.950;3.676;2023-02-12T03:40:54;34.90;;;22.33;;
75892;SDS011;64572;50.950;3.676;2023-02-12T03:43:26;40.28;;;24.40;;
75892;SDS011;64572;50.950;3.676;2023-02-12T03:45:58;37.15;;;24.50;;
75892;SDS011;64572;50.950;3.676;2023-02-12T03:48:40;34.13;;;24.15;;
75892;SDS011;64572;50.950;3.676;2023-02-12T03:53:55;37.30;;;25.35;;
75892;SDS011;64572;50.950;3.676;2023-02-12T03:56:26;37.00;;;24.75;;
75892;SDS011;64572;50.950;3.676;2023-02-12T03:59:05;37.42;;;24.73;;
75892;SDS011;64572;50.950;3.676;2023-02-12T04:01:32;37.80;;;24.83;;
75892;SDS011;64572;50.950;3.676;2023-02-12T04:03:59;39.83;;;24.50;;
75892;SDS011;64572;50.950;3.676;2023-02-12T04:06:29;37.95;;;24.58;;
75892;SDS011;64572;50.950;3.676;2023-02-12T04:08:56;40.83;;;25.52;;
75892;SDS011;64572;50.950;3.676;2023-02-12T04:14:40;38.38;;;24.67;;
75892;SDS011;64572;50.950;3.676;2023-02-12T04:31:14;40.38;;;27.42;;
75892;SDS011;64572;50.950;3.676;2023-02-12T04:36:22;40.47;;;27.23;;
75892;SDS011;64572;50.950;3.676;2023-02-12T04:38:56;40.15;;;25.90;;
75892;SDS011;64572;50.950;3.676;2023-02-12T04:41:25;42.15;;;26.90;;
75892;SDS011;64572;50.950;3.676;2023-02-12T04:43:51;41.22;;;27.02;;
75892;SDS011;64572;50.950;3.676;2023-02-12T04:46:16;41.72;;;28.05;;
75892;SDS011;64572;50.950;3.676;2023-02-12T04:48:48;44.90;;;27.33;;
75892;SDS011;64572;50.950;3.676;2023-02-12T04:51:19;42.83;;;26.73;;
75892;SDS011;64572;50.950;3.676;2023-02-12T04:53:45;42.38;;;28.67;;
75892;SDS011;64572;50.950;3.676;2023-02-12T04:56:11;42.20;;;28.10;;
75892;SDS011;64572;50.950;3.676;2023-02-12T04:58:38;43.97;;;28.00;;
75892;SDS011;64572;50.950;3.676;2023-02-12T05:01:04;43.13;;;28.17;;
75892;SDS011;64572;50.950;3.676;2023-02-12T05:03:30;50.28;;;30.38;;
75892;SDS011;64572;50.950;3.676;2023-02-12T05:06:00;50.58;;;29.25;;
75892;SDS011;64572;50.950;3.676;2023-02-12T05:08:30;43.22;;;28.67;;
75892;SDS011;64572;50.950;3.676;2023-02-12T05:10:56;44.63;;;29.42;;
75892;SDS011;64572;50.950;3.676;2023-02-12T05:13:21;47.75;;;30.77;;
75892;SDS011;64572;50.950;3.676;2023-02-12T05:15:47;46.05;;;29.77;;
75892;SDS011;64572;50.950;3.676;2023-02-12T05:18:13;46.95;;;30.38;;
75892;SDS011;64572;50.950;3.676;2023-02-12T05:20:38;49.25;;;30.50;;
75892;SDS011;64572;50.950;3.676;2023-02-12T05:23:04;48.20;;;29.58;;
75892;SDS011;64572;50.950;3.676;2023-02-12T05:25:29;48.53;;;30.77;;
75892;SDS011;64572;50.950;3.676;2023-02-12T05:27:56;53.10;;;30.17;;
75892;SDS011;64572;50.950;3.676;2023-02-12T05:30:22;43.15;;;28.45;;
75892;SDS011;64572;50.950;3.676;2023-02-12T05:32:47;46.72;;;30.52;;
75892;SDS011;64572;50.950;3.676;2023-02-12T05:35:13;48.38;;;28.60;;
75892;SDS011;64572;50.950;3.676;2023-02-12T05:37:39;46.13;;;30.33;;
75892;SDS011;64572;50.950;3.676;2023-02-12T05:40:05;47.80;;;30.17;;
75892;SDS011;64572;50.950;3.676;2023-02-12T05:42:32;48.17;;;30.60;;
75892;SDS011;64572;50.950;3.676;2023-02-12T05:44:58;46.65;;;30.15;;
75892;SDS011;64572;50.950;3.676;2023-02-12T05:47:24;49.08;;;31.15;;
75892;SDS011;64572;50.950;3.676;2023-02-12T05:49:50;50.08;;;31.20;;
75892;SDS011;64572;50.950;3.676;2023-02-12T05:52:15;51.42;;;31.98;;
75892;SDS011;64572;50.950;3.676;2023-02-12T05:54:41;53.72;;;32.30;;
75892;SDS011;64572;50.950;3.676;2023-02-12T05:57:07;52.33;;;34.00;;
75892;SDS011;64572;50.950;3.676;2023-02-12T05:59:32;51.28;;;31.98;;
75892;SDS011;64572;50.950;3.676;2023-02-12T06:01:58;54.65;;;32.45;;
75892;SDS011;64572;50.950;3.676;2023-02-12T06:04:25;52.60;;;32.88;;
75892;SDS011;64572;50.950;3.676;2023-02-12T06:06:52;47.83;;;31.40;;
75892;SDS011;64572;50.950;3.676;2023-02-12T06:09:19;46.33;;;30.63;;
75892;SDS011;64572;50.950;3.676;2023-02-12T06:11:45;46.03;;;29.95;;
75892;SDS011;64572;50.950;3.676;2023-02-12T06:14:13;50.95;;;31.05;;
75892;SDS011;64572;50.950;3.676;2023-02-12T06:16:42;48.85;;;31.42;;
75892;SDS011;64572;50.950;3.676;2023-02-12T06:19:12;49.28;;;30.42;;
75892;SDS011;64572;50.950;3.676;2023-02-12T06:21:38;48.67;;;31.17;;
75892;SDS011;64572;50.950;3.676;2023-02-12T06:24:04;54.05;;;31.88;;
75892;SDS011;64572;50.950;3.676;2023-02-12T06:26:30;47.00;;;31.48;;
75892;SDS011;64572;50.950;3.676;2023-02-12T06:28:55;48.88;;;30.52;;
75892;SDS011;64572;50.950;3.676;2023-02-12T06:31:22;49.63;;;32.38;;
75892;SDS011;64572;50.950;3.676;2023-02-12T06:33:53;50.58;;;31.10;;
75892;SDS011;64572;50.950;3.676;2023-02-12T06:36:20;49.57;;;31.50;;
75892;SDS011;64572;50.950;3.676;2023-02-12T06:38:46;47.00;;;30.73;;
75892;SDS011;64572;50.950;3.676;2023-02-12T06:41:12;49.38;;;30.23;;
75892;SDS011;64572;50.950;3.676;2023-02-12T06:43:38;46.58;;;30.27;;
75892;SDS011;64572;50.950;3.676;2023-02-12T06:46:04;54.75;;;32.40;;
75892;SDS011;64572;50.950;3.676;2023-02-12T06:48:31;49.00;;;31.30;;
75892;SDS011;64572;50.950;3.676;2023-02-12T06:51:08;48.22;;;31.10;;
75892;SDS011;64572;50.950;3.676;2023-02-12T06:53:41;51.00;;;31.38;;
75892;SDS011;64572;50.950;3.676;2023-02-12T06:56:09;51.15;;;29.25;;
75892;SDS011;64572;50.950;3.676;2023-02-12T06:58:37;48.35;;;30.73;;
75892;SDS011;64572;50.950;3.676;2023-02-12T07:01:17;47.55;;;31.05;;
75892;SDS011;64572;50.950;3.676;2023-02-12T07:03:52;50.22;;;30.92;;
75892;SDS011;64572;50.950;3.676;2023-02-12T07:06:19;70.38;;;42.28;;
75892;SDS011;64572;50.950;3.676;2023-02-12T07:08:46;51.10;;;30.30;;
75892;SDS011;64572;50.950;3.676;2023-02-12T07:11:12;51.65;;;31.10;;
75892;SDS011;64572;50.950;3.676;2023-02-12T07:13:41;54.33;;;31.85;;
75892;SDS011;64572;50.950;3.676;2023-02-12T07:16:12;55.92;;;35.42;;
75892;SDS011;64572;50.950;3.676;2023-02-12T07:18:39;52.50;;;32.63;;
75892;SDS011;64572;50.950;3.676;2023-02-12T07:21:06;52.28;;;32.90;;
75892;SDS011;64572;50.950;3.676;2023-02-12T07:23:32;51.83;;;32.28;;
75892;SDS011;64572;50.950;3.676;2023-02-12T07:26:00;55.03;;;32.78;;
75892;SDS011;64572;50.950;3.676;2023-02-12T07:28:28;53.33;;;33.25;;
75892;SDS011;64572;50.950;3.676;2023-02-12T07:30:57;52.10;;;33.30;;
75892;SDS011;64572;50.950;3.676;2023-02-12T07:33:24;52.28;;;32.00;;
75892;SDS011;64572;50.950;3.676;2023-02-12T07:35:49;52.47;;;32.55;;
75892;SDS011;64572;50.950;3.676;2023-02-12T07:38:15;51.45;;;32.00;;
75892;SDS011;64572;50.950;3.676;2023-02-12T07:40:40;48.03;;;30.95;;
75892;SDS011;64572;50.950;3.676;2023-02-12T07:43:06;47.33;;;30.27;;
75892;SDS011;64572;50.950;3.676;2023-02-12T07:45:32;53.20;;;30.92;;
75892;SDS011;64572;50.950;3.676;2023-02-12T07:47:58;46.90;;;29.38;;
75892;SDS011;64572;50.950;3.676;2023-02-12T07:50:25;44.15;;;28.55;;
75892;SDS011;64572;50.950;3.676;2023-02-12T07:52:50;48.05;;;30.35;;
75892;SDS011;64572;50.950;3.676;2023-02-12T07:55:16;48.50;;;30.50;;
75892;SDS011;64572;50.950;3.676;2023-02-12T07:57:41;51.08;;;30.40;;
75892;SDS011;64572;50.950;3.676;2023-02-12T08:00:07;53.38;;;30.92;;
75892;SDS011;64572;50.950;3.676;2023-02-12T08:02:34;56.10;;;31.65;;
75892;SDS011;64572;50.950;3.676;2023-02-12T08:04:59;47.33;;;30.27;;
75892;SDS011;64572;50.950;3.676;2023-02-12T08:07:25;46.92;;;28.20;;
75892;SDS011;64572;50.950;3.676;2023-02-12T08:09:51;43.95;;;28.60;;
75892;SDS011;64572;50.950;3.676;2023-02-12T08:12:16;51.90;;;31.42;;
75892;SDS011;64572;50.950;3.676;2023-02-12T08:14:42;51.95;;;31.52;;
75892;SDS011;64572;50.950;3.676;2023-02-12T08:17:08;50.70;;;29.95;;
75892;SDS011;64572;50.950;3.676;2023-02-12T08:19:34;48.65;;;28.95;;
75892;SDS011;64572;50.950;3.676;2023-02-12T08:22:01;48.85;;;30.33;;
75892;SDS011;64572;50.950;3.676;2023-02-12T08:24:27;46.63;;;30.13;;
75892;SDS011;64572;50.950;3.676;2023-02-12T08:26:53;44.20;;;28.35;;
75892;SDS011;64572;50.950;3.676;2023-02-12T08:29:20;46.42;;;28.85;;
75892;SDS011;64572;50.950;3.676;2023-02-12T08:31:48;43.38;;;27.35;;
75892;SDS011;64572;50.950;3.676;2023-02-12T08:34:25;45.67;;;28.27;;
75892;SDS011;64572;50.950;3.676;2023-02-12T08:36:53;42.28;;;28.20;;
75892;SDS011;64572;50.950;3.676;2023-02-12T08:39:19;44.67;;;28.58;;
75892;SDS011;64572;50.950;3.676;2023-02-12T08:41:45;43.35;;;29.02;;
75892;SDS011;64572;50.950;3.676;2023-02-12T08:44:12;43.97;;;29.08;;
75892;SDS011;64572;50.950;3.676;2023-02-12T08:46:39;41.20;;;27.88;;
75892;SDS011;64572;50.950;3.676;2023-02-12T08:49:10;44.60;;;29.50;;
75892;SDS011;64572;50.950;3.676;2023-02-12T08:51:38;42.55;;;29.35;;
75892;SDS011;64572;50.950;3.676;2023-02-12T08:56:34;52.55;;;34.85;;
75892;SDS011;64572;50.950;3.676;2023-02-12T08:59:01;31.20;;;20.85;;
75892;SDS011;64572;50.950;3.676;2023-02-12T09:01:29;32.88;;;20.27;;
75892;SDS011;64572;50.950;3.676;2023-02-12T09:03:57;33.22;;;20.63;;
75892;SDS011;64572;50.950;3.676;2023-02-12T09:06:23;34.05;;;22.45;;
75892;SDS011;64572;50.950;3.676;2023-02-12T09:08:51;32.85;;;22.80;;
75892;SDS011;64572;50.950;3.676;2023-02-12T09:11:21;29.80;;;19.17;;
75892;SDS011;64572;50.950;3.676;2023-02-12T09:13:54;35.17;;;22.40;;
75892;SDS011;64572;50.950;3.676;2023-02-12T09:16:22;31.63;;;21.60;;
75892;SDS011;64572;50.950;3.676;2023-02-12T09:18:48;33.67;;;22.80;;
75892;SDS011;64572;50.950;3.676;2023-02-12T09:21:14;33.53;;;22.92;;
75892;SDS011;64572;50.950;3.676;2023-02-12T09:23:43;34.80;;;22.42;;
75892;SDS011;64572;50.950;3.676;2023-02-12T09:26:10;27.45;;;18.00;;
75892;SDS011;64572;50.950;3.676;2023-02-12T09:28:37;36.20;;;21.30;;
75892;SDS011;64572;50.950;3.676;2023-02-12T09:31:07;30.42;;;20.83;;
75892;SDS011;64572;50.950;3.676;2023-02-12T09:33:35;29.02;;;21.10;;
75892;SDS011;64572;50.950;3.676;2023-02-12T09:36:05;28.90;;;19.20;;
75892;SDS011;64572;50.950;3.676;2023-02-12T09:52:14;28.67;;;19.15;;
75892;SDS011;64572;50.950;3.676;2023-02-12T09:54:41;29.77;;;18.73;;
75892;SDS011;64572;50.950;3.676;2023-02-12T09:57:14;31.55;;;21.33;;
75892;SDS011;64572;50.950;3.676;2023-02-12T09:59:45;28.30;;;19.00;;
75892;SDS011;64572;50.950;3.676;2023-02-12T10:02:36;29.10;;;20.65;;
75892;SDS011;64572;50.950;3.676;2023-02-12T10:05:04;32.97;;;20.35;;
75892;SDS011;64572;50.950;3.676;2023-02-12T10:12:43;36.30;;;22.23;;
75892;SDS011;64572;50.950;3.676;2023-02-12T10:20:57;34.60;;;23.92;;
75892;SDS011;64572;50.950;3.676;2023-02-12T10:23:36;29.25;;;20.10;;
75892;SDS011;64572;50.950;3.676;2023-02-12T10:29:36;32.88;;;20.30;;
75892;SDS011;64572;50.950;3.676;2023-02-12T10:32:09;30.17;;;20.42;;
75892;SDS011;64572;50.950;3.676;2023-02-12T10:34:48;31.90;;;21.73;;
75892;SDS011;64572;50.950;3.676;2023-02-12T10:40:34;29.45;;;19.73;;
75892;SDS011;64572;50.950;3.676;2023-02-12T10:43:03;27.75;;;18.70;;
75892;SDS011;64572;50.950;3.676;2023-02-12T10:50:43;29.13;;;19.10;;
75892;SDS011;64572;50.950;3.676;2023-02-12T10:53:30;29.15;;;19.05;;
75892;SDS011;64572;50.950;3.676;2023-02-12T10:58:36;29.27;;;19.77;;
75892;SDS011;64572;50.950;3.676;2023-02-12T11:01:04;28.30;;;19.17;;
75892;SDS011;64572;50.950;3.676;2023-02-12T11:03:58;27.52;;;18.70;;
75892;SDS011;64572;50.950;3.676;2023-02-12T11:06:46;29.92;;;18.13;;
75892;SDS011;64572;50.950;3.676;2023-02-12T11:09:28;29.98;;;20.13;;
75892;SDS011;64572;50.950;3.676;2023-02-12T11:11:59;28.58;;;19.23;;
75892;SDS011;64572;50.950;3.676;2023-02-12T11:14:25;29.38;;;19.98;;
75892;SDS011;64572;50.950;3.676;2023-02-12T11:16:52;37.40;;;21.23;;
75892;SDS011;64572;50.950;3.676;2023-02-12T11:21:49;28.30;;;19.63;;
75892;SDS011;64572;50.950;3.676;2023-02-12T11:24:20;32.05;;;19.23;;
75892;SDS011;64572;50.950;3.676;2023-02-12T11:26:45;31.25;;;19.80;;
75892;SDS011;64572;50.950;3.676;2023-02-12T11:29:21;35.05;;;20.05;;
75892;SDS011;64572;50.950;3.676;2023-02-12T11:32:01;31.17;;;19.42;;
75892;SDS011;64572;50.950;3.676;2023-02-12T11:36:54;34.67;;;19.85;;
75892;SDS011;64572;50.950;3.676;2023-02-12T11:39:54;35.30;;;21.27;;
75892;SDS011;64572;50.950;3.676;2023-02-12T11:47:34;31.05;;;17.95;;
75892;SDS011;64572;50.950;3.676;2023-02-12T11:52:33;34.90;;;20.83;;
75892;SDS011;64572;50.950;3.676;2023-02-12T11:55:02;31.38;;;20.52;;
75892;SDS011;64572;50.950;3.676;2023-02-12T12:03:32;32.08;;;19.10;;
75892;SDS011;64572;50.950;3.676;2023-02-12T12:08:55;33.67;;;19.15;;
75892;SDS011;64572;50.950;3.676;2023-02-12T12:14:26;35.85;;;18.85;;
75892;SDS011;64572;50.950;3.676;2023-02-12T12:17:20;30.45;;;18.23;;
75892;SDS011;64572;50.950;3.676;2023-02-12T12:20:19;31.25;;;18.95;;
75892;SDS011;64572;50.950;3.676;2023-02-12T12:25:53;29.00;;;17.85;;
75892;SDS011;64572;50.950;3.676;2023-02-12T12:31:18;27.05;;;17.45;;
75892;SDS011;64572;50.950;3.676;2023-02-12T12:36:32;30.63;;;18.73;;
75892;SDS011;64572;50.950;3.676;2023-02-12T12:47:51;33.50;;;18.58;;
75892;SDS011;64572;50.950;3.676;2023-02-12T12:51:02;31.42;;;18.08;;
75892;SDS011;64572;50.950;3.676;2023-02-12T13:07:49;29.52;;;17.67;;
75892;SDS011;64572;50.950;3.676;2023-02-12T13:10:15;31.38;;;19.80;;
75892;SDS011;64572;50.950;3.676;2023-02-12T13:16:15;31.50;;;18.33;;
75892;SDS011;64572;50.950;3.676;2023-02-12T13:19:02;28.10;;;15.48;;
75892;SDS011;64572;50.950;3.676;2023-02-12T13:21:45;33.67;;;20.38;;
75892;SDS011;64572;50.950;3.676;2023-02-12T13:24:56;32.22;;;21.65;;
75892;SDS011;64572;50.950;3.676;2023-02-12T13:27:27;35.17;;;20.60;;
75892;SDS011;64572;50.950;3.676;2023-02-12T13:32:40;34.22;;;20.92;;
75892;SDS011;64572;50.950;3.676;2023-02-12T13:35:25;39.47;;;21.52;;
75892;SDS011;64572;50.950;3.676;2023-02-12T13:37:54;33.78;;;21.35;;
75892;SDS011;64572;50.950;3.676;2023-02-12T13:48:54;36.47;;;21.00;;
75892;SDS011;64572;50.950;3.676;2023-02-12T13:57:17;36.70;;;20.80;;
75892;SDS011;64572;50.950;3.676;2023-02-12T14:04:38;34.13;;;19.70;;
75892;SDS011;64572;50.950;3.676;2023-02-12T14:07:10;31.20;;;19.25;;
75892;SDS011;64572;50.950;3.676;2023-02-12T14:09:39;33.13;;;18.42;;
75892;SDS011;64572;50.950;3.676;2023-02-12T14:12:34;29.98;;;17.58;;
75892;SDS011;64572;50.950;3.676;2023-02-12T14:15:08;34.00;;;18.73;;
75892;SDS011;64572;50.950;3.676;2023-02-12T14:17:50;30.02;;;17.23;;
75892;SDS011;64572;50.950;3.676;2023-02-12T14:20:30;32.55;;;17.95;;
75892;SDS011;64572;50.950;3.676;2023-02-12T14:25:45;29.85;;;17.08;;
75892;SDS011;64572;50.950;3.676;2023-02-12T14:28:22;30.58;;;17.48;;
75892;SDS011;64572;50.950;3.676;2023-02-12T14:33:43;30.83;;;17.15;;
75892;SDS011;64572;50.950;3.676;2023-02-12T14:47:01;33.58;;;16.40;;
75892;SDS011;64572;50.950;3.676;2023-02-12T14:49:36;32.70;;;18.00;;
75892;SDS011;64572;50.950;3.676;2023-02-12T14:52:17;34.47;;;18.55;;
75892;SDS011;64572;50.950;3.676;2023-02-12T14:54:47;32.38;;;17.88;;
75892;SDS011;64572;50.950;3.676;2023-02-12T15:00:41;35.05;;;18.75;;
75892;SDS011;64572;50.950;3.676;2023-02-12T15:05:42;33.28;;;18.70;;
75892;SDS011;64572;50.950;3.676;2023-02-12T15:08:18;37.28;;;18.65;;
75892;SDS011;64572;50.950;3.676;2023-02-12T15:11:16;30.38;;;18.05;;
75892;SDS011;64572;50.950;3.676;2023-02-12T15:13:50;31.77;;;17.67;;
75892;SDS011;64572;50.950;3.676;2023-02-12T15:16:26;33.85;;;20.00;;
75892;SDS011;64572;50.950;3.676;2023-02-12T15:22:23;35.58;;;19.15;;
75892;SDS011;64572;50.950;3.676;2023-02-12T15:24:51;33.20;;;19.77;;
75892;SDS011;64572;50.950;3.676;2023-02-12T15:27:18;37.13;;;20.30;;
75892;SDS011;64572;50.950;3.676;2023-02-12T15:29:51;34.10;;;20.17;;
75892;SDS011;64572;50.950;3.676;2023-02-12T15:32:20;33.20;;;19.58;;
75892;SDS011;64572;50.950;3.676;2023-02-12T15:34:49;36.97;;;20.88;;
75892;SDS011;64572;50.950;3.676;2023-02-12T15:37:18;34.05;;;19.60;;
75892;SDS011;64572;50.950;3.676;2023-02-12T15:39:47;37.15;;;20.65;;
75892;SDS011;64572;50.950;3.676;2023-02-12T15:42:34;34.72;;;20.13;;
75892;SDS011;64572;50.950;3.676;2023-02-12T15:45:16;35.53;;;19.88;;
75892;SDS011;64572;50.950;3.676;2023-02-12T15:47:45;38.35;;;21.35;;
75892;SDS011;64572;50.950;3.676;2023-02-12T15:50:21;38.00;;;21.30;;
75892;SDS011;64572;50.950;3.676;2023-02-12T15:52:47;38.00;;;20.98;;
75892;SDS011;64572;50.950;3.676;2023-02-12T15:55:15;37.50;;;21.50;;
75892;SDS011;64572;50.950;3.676;2023-02-12T15:57:48;53.97;;;29.85;;
75892;SDS011;64572;50.950;3.676;2023-02-12T16:00:41;53.17;;;28.48;;
75892;SDS011;64572;50.950;3.676;2023-02-12T16:03:18;45.33;;;25.08;;
75892;SDS011;64572;50.950;3.676;2023-02-12T16:05:46;47.95;;;26.20;;
75892;SDS011;64572;50.950;3.676;2023-02-12T16:08:14;41.15;;;23.10;;
75892;SDS011;64572;50.950;3.676;2023-02-12T16:10:42;45.65;;;23.98;;
75892;SDS011;64572;50.950;3.676;2023-02-12T16:15:42;38.38;;;18.33;;
75892;SDS011;64572;50.950;3.676;2023-02-12T16:18:24;58.92;;;31.92;;
75892;SDS011;64572;50.950;3.676;2023-02-12T16:21:00;36.67;;;21.08;;
75892;SDS011;64572;50.950;3.676;2023-02-12T16:23:55;34.55;;;17.85;;
75892;SDS011;64572;50.950;3.676;2023-02-12T16:26:23;38.50;;;20.80;;
75892;SDS011;64572;50.950;3.676;2023-02-12T16:28:51;68.93;;;35.70;;
75892;SDS011;64572;50.950;3.676;2023-02-12T16:31:19;59.30;;;31.20;;
75892;SDS011;64572;50.950;3.676;2023-02-12T16:33:48;34.20;;;17.60;;
75892;SDS011;64572;50.950;3.676;2023-02-12T16:38:49;34.30;;;19.05;;
75892;SDS011;64572;50.950;3.676;2023-02-12T16:44:20;32.13;;;18.30;;
75892;SDS011;64572;50.950;3.676;2023-02-12T16:46:45;36.67;;;18.73;;
75892;SDS011;64572;50.950;3.676;2023-02-12T16:49:17;32.80;;;18.27;;
75892;SDS011;64572;50.950;3.676;2023-02-12T16:51:45;33.33;;;17.58;;
75892;SDS011;64572;50.950;3.676;2023-02-12T16:56:57;31.27;;;17.48;;
75892;SDS011;64572;50.950;3.676;2023-02-12T16:59:24;33.97;;;17.92;;
75892;SDS011;64572;50.950;3.676;2023-02-12T17:04:41;31.25;;;16.92;;
75892;SDS011;64572;50.950;3.676;2023-02-12T17:07:14;34.35;;;17.40;;
75892;SDS011;64572;50.950;3.676;2023-02-12T17:09:47;31.48;;;17.42;;
75892;SDS011;64572;50.950;3.676;2023-02-12T17:12:13;32.08;;;17.17;;
75892;SDS011;64572;50.950;3.676;2023-02-12T17:14:39;30.73;;;17.08;;
75892;SDS011;64572;50.950;3.676;2023-02-12T17:17:05;36.97;;;18.15;;
75892;SDS011;64572;50.950;3.676;2023-02-12T17:19:30;34.80;;;17.73;;
75892;SDS011;64572;50.950;3.676;2023-02-12T17:21:56;29.40;;;16.77;;
75892;SDS011;64572;50.950;3.676;2023-02-12T17:24:26;33.58;;;17.58;;
75892;SDS011;64572;50.950;3.676;2023-02-12T17:26:53;32.38;;;17.70;;
75892;SDS011;64572;50.950;3.676;2023-02-12T17:29:21;36.20;;;18.08;;
75892;SDS011;64572;50.950;3.676;2023-02-12T17:31:48;34.10;;;18.30;;
75892;SDS011;64572;50.950;3.676;2023-02-12T17:34:17;34.03;;;17.48;;
75892;SDS011;64572;50.950;3.676;2023-02-12T17:36:43;31.05;;;16.80;;
75892;SDS011;64572;50.950;3.676;2023-02-12T17:39:10;38.10;;;18.63;;
75892;SDS011;64572;50.950;3.676;2023-02-12T17:41:37;35.40;;;18.80;;
75892;SDS011;64572;50.950;3.676;2023-02-12T17:44:04;36.55;;;19.15;;
75892;SDS011;64572;50.950;3.676;2023-02-12T17:46:30;36.75;;;18.45;;
75892;SDS011;64572;50.950;3.676;2023-02-12T17:48:56;40.00;;;19.17;;
75892;SDS011;64572;50.950;3.676;2023-02-12T17:51:22;38.58;;;20.85;;
